KRCR/RCR METAR and TAF weather

Enter ICAO airport designator
Station Type Date Time Source
KRCR METAR 2021/01/17 18:55 UTC NOAA

KRCR 171855Z AUTO 27008KT 10SM BKN011 OVC016 00/M02 A2969 RMK AO2


Station Type Date Time Source
KRCR Decoded METAR 2021/01/17 18:55 UTC NOAA

Station name not available
Jan 17, 2021 - 01:55 PM EST / 2021.01.17 1855 UTC
Wind: from the W (270 degrees) at 9 MPH (8 KT):0
Visibility: 10 mile(s):0
Sky conditions: overcast
Temperature: 32 F (0 C)
Windchill: 24 F (-4 C):1
Dew Point: 28 F (-2 C)
Relative Humidity: 86%
Pressure (altimeter): 29.69 in. Hg (1005 hPa)
ob: KRCR 171855Z AUTO 27008KT 10SM BKN011 OVC016 00/M02 A2969 RMK AO2
cycle: 19

Station Type Date Time Source
KRCR TAF UTC NOAA

Error!

Example: see airport list